sensor_id;sensor_type;location;lat;lon;timestamp;temperature;humidity
530;DHT22;251;48.704;9.210;2023-06-22T00:01:22;19.40;73.20
530;DHT22;251;48.704;9.210;2023-06-22T00:03:50;19.40;78.90
530;DHT22;251;48.704;9.210;2023-06-22T00:06:18;19.30;75.60
530;DHT22;251;48.704;9.210;2023-06-22T00:08:45;19.30;77.30
530;DHT22;251;48.704;9.210;2023-06-22T00:11:11;19.30;77.60
530;DHT22;251;48.704;9.210;2023-06-22T00:13:39;19.20;75.50
530;DHT22;251;48.704;9.210;2023-06-22T00:16:06;19.20;75.90
530;DHT22;251;48.704;9.210;2023-06-22T00:18:33;19.20;77.60
530;DHT22;251;48.704;9.210;2023-06-22T00:20:59;19.10;77.60
530;DHT22;251;48.704;9.210;2023-06-22T00:23:28;19.10;80.00
530;DHT22;251;48.704;9.210;2023-06-22T00:25:59;19.10;81.40
530;DHT22;251;48.704;9.210;2023-06-22T00:28:26;19.10;78.40
530;DHT22;251;48.704;9.210;2023-06-22T00:30:54;19.00;76.10
530;DHT22;251;48.704;9.210;2023-06-22T00:33:21;18.90;80.00
530;DHT22;251;48.704;9.210;2023-06-22T00:35:48;18.90;83.10
530;DHT22;251;48.704;9.210;2023-06-22T00:38:18;18.80;84.50
530;DHT22;251;48.704;9.210;2023-06-22T00:40:46;18.80;87.80
530;DHT22;251;48.704;9.210;2023-06-22T00:43:13;18.80;88.50
530;DHT22;251;48.704;9.210;2023-06-22T00:45:40;18.90;89.40
530;DHT22;251;48.704;9.210;2023-06-22T00:48:07;18.90;86.10
530;DHT22;251;48.704;9.210;2023-06-22T00:50:35;18.90;85.70
530;DHT22;251;48.704;9.210;2023-06-22T00:53:04;18.90;86.80
530;DHT22;251;48.704;9.210;2023-06-22T00:55:34;18.90;82.90
530;DHT22;251;48.704;9.210;2023-06-22T00:58:06;18.80;84.90
530;DHT22;251;48.704;9.210;2023-06-22T01:00:33;18.80;83.70
530;DHT22;251;48.704;9.210;2023-06-22T01:03:01;18.70;83.00
530;DHT22;251;48.704;9.210;2023-06-22T01:05:28;18.70;86.00
530;DHT22;251;48.704;9.210;2023-06-22T01:08:05;18.70;88.30
530;DHT22;251;48.704;9.210;2023-06-22T01:10:44;18.70;86.30
530;DHT22;251;48.704;9.210;2023-06-22T01:13:18;18.60;85.30
530;DHT22;251;48.704;9.210;2023-06-22T01:15:53;18.60;87.60
530;DHT22;251;48.704;9.210;2023-06-22T01:18:22;18.50;90.90
530;DHT22;251;48.704;9.210;2023-06-22T01:20:52;18.60;93.30
530;DHT22;251;48.704;9.210;2023-06-22T01:23:27;18.60;92.10
530;DHT22;251;48.704;9.210;2023-06-22T01:26:02;18.60;90.70
530;DHT22;251;48.704;9.210;2023-06-22T01:28:45;18.60;90.80
530;DHT22;251;48.704;9.210;2023-06-22T01:31:14;18.60;92.80
530;DHT22;251;48.704;9.210;2023-06-22T01:33:44;18.60;91.60
530;DHT22;251;48.704;9.210;2023-06-22T01:36:13;18.70;90.20
530;DHT22;251;48.704;9.210;2023-06-22T01:38:42;18.60;91.00
530;DHT22;251;48.704;9.210;2023-06-22T01:41:11;18.60;90.10
530;DHT22;251;48.704;9.210;2023-06-22T01:43:40;18.70;91.30
530;DHT22;251;48.704;9.210;2023-06-22T01:46:08;18.60;90.80
530;DHT22;251;48.704;9.210;2023-06-22T01:48:35;18.60;91.10
530;DHT22;251;48.704;9.210;2023-06-22T01:51:02;18.60;90.40
530;DHT22;251;48.704;9.210;2023-06-22T01:53:29;18.50;91.70
530;DHT22;251;48.704;9.210;2023-06-22T01:55:56;18.50;93.40
530;DHT22;251;48.704;9.210;2023-06-22T01:58:25;18.60;92.70
530;DHT22;251;48.704;9.210;2023-06-22T02:00:58;18.50;91.00
530;DHT22;251;48.704;9.210;2023-06-22T02:03:30;18.40;91.80
530;DHT22;251;48.704;9.210;2023-06-22T02:06:03;18.50;92.50
530;DHT22;251;48.704;9.210;2023-06-22T02:08:33;18.50;92.60
530;DHT22;251;48.704;9.210;2023-06-22T02:11:02;18.50;91.40
530;DHT22;251;48.704;9.210;2023-06-22T02:13:30;18.50;91.10
530;DHT22;251;48.704;9.210;2023-06-22T02:16:00;18.40;92.80
530;DHT22;251;48.704;9.210;2023-06-22T02:18:27;18.40;91.70
530;DHT22;251;48.704;9.210;2023-06-22T02:20:54;18.40;93.30
530;DHT22;251;48.704;9.210;2023-06-22T02:23:22;18.40;92.60
530;DHT22;251;48.704;9.210;2023-06-22T02:25:48;18.30;90.80
530;DHT22;251;48.704;9.210;2023-06-22T02:28:15;18.20;92.30
530;DHT22;251;48.704;9.210;2023-06-22T02:30:44;18.20;94.40
530;DHT22;251;48.704;9.210;2023-06-22T02:33:12;18.20;95.00
530;DHT22;251;48.704;9.210;2023-06-22T02:35:38;18.20;93.30
530;DHT22;251;48.704;9.210;2023-06-22T02:38:06;18.20;92.80
530;DHT22;251;48.704;9.210;2023-06-22T02:40:33;18.20;93.10
530;DHT22;251;48.704;9.210;2023-06-22T02:43:00;18.20;92.80
530;DHT22;251;48.704;9.210;2023-06-22T02:45:28;18.10;94.50
530;DHT22;251;48.704;9.210;2023-06-22T02:47:55;18.10;93.60
530;DHT22;251;48.704;9.210;2023-06-22T02:50:24;18.00;93.60
530;DHT22;251;48.704;9.210;2023-06-22T02:52:52;18.00;92.50
530;DHT22;251;48.704;9.210;2023-06-22T02:55:18;18.00;94.60
530;DHT22;251;48.704;9.210;2023-06-22T02:57:53;18.00;94.80
530;DHT22;251;48.704;9.210;2023-06-22T03:00:20;17.90;94.60
530;DHT22;251;48.704;9.210;2023-06-22T03:02:48;17.80;93.20
530;DHT22;251;48.704;9.210;2023-06-22T03:05:16;17.70;94.90
530;DHT22;251;48.704;9.210;2023-06-22T03:07:45;17.70;98.00
530;DHT22;251;48.704;9.210;2023-06-22T03:10:13;17.60;99.60
530;DHT22;251;48.704;9.210;2023-06-22T03:12:40;17.90;99.90
530;DHT22;251;48.704;9.210;2023-06-22T03:15:09;17.60;93.80
530;DHT22;251;48.704;9.210;2023-06-22T03:17:37;17.60;96.30
530;DHT22;251;48.704;9.210;2023-06-22T03:20:05;17.60;96.00
530;DHT22;251;48.704;9.210;2023-06-22T03:22:35;17.50;96.50
530;DHT22;251;48.704;9.210;2023-06-22T03:25:04;17.40;98.40
530;DHT22;251;48.704;9.210;2023-06-22T03:27:35;17.40;99.30
530;DHT22;251;48.704;9.210;2023-06-22T03:30:03;17.40;98.10
530;DHT22;251;48.704;9.210;2023-06-22T03:32:30;17.30;97.90
530;DHT22;251;48.704;9.210;2023-06-22T03:34:58;17.30;98.40
530;DHT22;251;48.704;9.210;2023-06-22T03:37:25;17.30;99.80
530;DHT22;251;48.704;9.210;2023-06-22T03:39:52;17.20;99.90
530;DHT22;251;48.704;9.210;2023-06-22T03:42:21;17.00;99.90
530;DHT22;251;48.704;9.210;2023-06-22T03:44:47;17.20;99.90
530;DHT22;251;48.704;9.210;2023-06-22T03:47:14;17.30;99.90
530;DHT22;251;48.704;9.210;2023-06-22T03:49:41;17.30;99.90
530;DHT22;251;48.704;9.210;2023-06-22T03:52:08;17.40;99.40
530;DHT22;251;48.704;9.210;2023-06-22T03:54:36;17.40;99.70
530;DHT22;251;48.704;9.210;2023-06-22T03:57:04;17.40;99.90
530;DHT22;251;48.704;9.210;2023-06-22T03:59:32;17.50;98.90
530;DHT22;251;48.704;9.210;2023-06-22T04:01:59;17.40;99.10
530;DHT22;251;48.704;9.210;2023-06-22T04:04:25;17.40;98.60
530;DHT22;251;48.704;9.210;2023-06-22T04:06:52;17.40;97.70
530;DHT22;251;48.704;9.210;2023-06-22T04:09:19;17.60;99.50
530;DHT22;251;48.704;9.210;2023-06-22T04:11:47;17.50;99.90
530;DHT22;251;48.704;9.210;2023-06-22T04:14:13;17.50;98.70
530;DHT22;251;48.704;9.210;2023-06-22T04:16:41;17.60;98.00
530;DHT22;251;48.704;9.210;2023-06-22T04:19:08;17.60;96.30
530;DHT22;251;48.704;9.210;2023-06-22T04:21:39;17.70;95.80
530;DHT22;251;48.704;9.210;2023-06-22T04:24:06;17.80;96.60
530;DHT22;251;48.704;9.210;2023-06-22T04:26:33;17.80;95.60
530;DHT22;251;48.704;9.210;2023-06-22T04:29:02;17.80;96.20
530;DHT22;251;48.704;9.210;2023-06-22T04:31:31;17.80;97.90
530;DHT22;251;48.704;9.210;2023-06-22T04:34:03;18.00;97.60
530;DHT22;251;48.704;9.210;2023-06-22T04:36:34;18.00;95.50
530;DHT22;251;48.704;9.210;2023-06-22T04:39:06;18.00;95.70
530;DHT22;251;48.704;9.210;2023-06-22T04:41:35;18.10;94.80
530;DHT22;251;48.704;9.210;2023-06-22T04:44:11;18.20;94.50
530;DHT22;251;48.704;9.210;2023-06-22T04:46:38;18.20;93.70
530;DHT22;251;48.704;9.210;2023-06-22T04:49:07;18.30;93.20
530;DHT22;251;48.704;9.210;2023-06-22T04:51:39;18.40;93.40
530;DHT22;251;48.704;9.210;2023-06-22T04:54:07;18.50;93.10
530;DHT22;251;48.704;9.210;2023-06-22T04:56:34;18.50;92.30
530;DHT22;251;48.704;9.210;2023-06-22T04:59:02;18.60;91.90
530;DHT22;251;48.704;9.210;2023-06-22T05:01:29;18.70;92.30
530;DHT22;251;48.704;9.210;2023-06-22T05:03:57;18.80;92.30
530;DHT22;251;48.704;9.210;2023-06-22T05:06:28;18.90;93.20
530;DHT22;251;48.704;9.210;2023-06-22T05:08:55;19.10;91.60
530;DHT22;251;48.704;9.210;2023-06-22T05:11:24;19.20;90.90
530;DHT22;251;48.704;9.210;2023-06-22T05:13:51;19.20;91.70
530;DHT22;251;48.704;9.210;2023-06-22T05:16:17;19.40;90.60
530;DHT22;251;48.704;9.210;2023-06-22T05:18:51;19.50;88.00
530;DHT22;251;48.704;9.210;2023-06-22T05:21:21;19.70;86.90
530;DHT22;251;48.704;9.210;2023-06-22T05:23:49;19.90;86.60
530;DHT22;251;48.704;9.210;2023-06-22T05:26:15;20.00;73.00
530;DHT22;251;48.704;9.210;2023-06-22T05:28:42;20.20;68.80
530;DHT22;251;48.704;9.210;2023-06-22T05:31:11;20.40;72.10
530;DHT22;251;48.704;9.210;2023-06-22T05:33:38;20.50;61.50
530;DHT22;251;48.704;9.210;2023-06-22T05:36:05;20.70;59.50
530;DHT22;251;48.704;9.210;2023-06-22T05:38:32;20.90;56.80
530;DHT22;251;48.704;9.210;2023-06-22T05:41:00;21.10;53.80
530;DHT22;251;48.704;9.210;2023-06-22T05:43:27;21.20;48.60
530;DHT22;251;48.704;9.210;2023-06-22T05:45:54;21.30;48.50
530;DHT22;251;48.704;9.210;2023-06-22T05:48:21;21.50;47.30
530;DHT22;251;48.704;9.210;2023-06-22T05:50:47;21.60;45.30
530;DHT22;251;48.704;9.210;2023-06-22T05:53:14;21.70;45.70
530;DHT22;251;48.704;9.210;2023-06-22T05:55:41;21.70;43.10
530;DHT22;251;48.704;9.210;2023-06-22T05:58:09;21.80;41.80
530;DHT22;251;48.704;9.210;2023-06-22T06:00:36;21.90;40.20
530;DHT22;251;48.704;9.210;2023-06-22T06:03:03;22.00;41.90
530;DHT22;251;48.704;9.210;2023-06-22T06:05:30;22.10;39.30
530;DHT22;251;48.704;9.210;2023-06-22T06:07:58;22.10;38.10
530;DHT22;251;48.704;9.210;2023-06-22T06:10:25;22.20;36.30
530;DHT22;251;48.704;9.210;2023-06-22T06:12:52;22.20;33.60
530;DHT22;251;48.704;9.210;2023-06-22T06:15:20;22.30;36.00
530;DHT22;251;48.704;9.210;2023-06-22T06:17:47;22.30;34.40
530;DHT22;251;48.704;9.210;2023-06-22T06:20:14;22.30;35.60
530;DHT22;251;48.704;9.210;2023-06-22T06:22:41;22.30;33.20
530;DHT22;251;48.704;9.210;2023-06-22T06:25:09;22.30;33.10
530;DHT22;251;48.704;9.210;2023-06-22T06:27:42;22.40;33.20
530;DHT22;251;48.704;9.210;2023-06-22T06:30:10;22.50;33.40
530;DHT22;251;48.704;9.210;2023-06-22T06:32:39;22.60;34.00
530;DHT22;251;48.704;9.210;2023-06-22T06:35:07;22.70;31.80
530;DHT22;251;48.704;9.210;2023-06-22T06:37:36;22.90;28.50
530;DHT22;251;48.704;9.210;2023-06-22T06:40:04;23.00;27.40
530;DHT22;251;48.704;9.210;2023-06-22T06:42:34;23.10;28.00
530;DHT22;251;48.704;9.210;2023-06-22T06:45:01;23.30;27.80
530;DHT22;251;48.704;9.210;2023-06-22T06:47:27;23.40;25.60
530;DHT22;251;48.704;9.210;2023-06-22T06:49:55;23.50;25.30
530;DHT22;251;48.704;9.210;2023-06-22T06:52:22;23.60;26.00
530;DHT22;251;48.704;9.210;2023-06-22T06:54:49;23.70;24.90
530;DHT22;251;48.704;9.210;2023-06-22T06:57:17;23.80;25.50
530;DHT22;251;48.704;9.210;2023-06-22T06:59:44;23.90;23.30
530;DHT22;251;48.704;9.210;2023-06-22T07:02:11;24.00;23.80
530;DHT22;251;48.704;9.210;2023-06-22T07:04:37;24.00;23.60
530;DHT22;251;48.704;9.210;2023-06-22T07:07:06;24.10;22.70
530;DHT22;251;48.704;9.210;2023-06-22T07:09:33;24.20;22.70
530;DHT22;251;48.704;9.210;2023-06-22T07:11:59;24.30;22.50
530;DHT22;251;48.704;9.210;2023-06-22T07:14:26;24.40;22.40
530;DHT22;251;48.704;9.210;2023-06-22T07:16:53;24.40;21.30
530;DHT22;251;48.704;9.210;2023-06-22T07:19:24;24.40;21.40
530;DHT22;251;48.704;9.210;2023-06-22T07:21:52;24.40;20.80
530;DHT22;251;48.704;9.210;2023-06-22T07:24:21;24.50;20.50
530;DHT22;251;48.704;9.210;2023-06-22T07:26:47;24.60;20.80
530;DHT22;251;48.704;9.210;2023-06-22T07:29:16;24.70;20.10
530;DHT22;251;48.704;9.210;2023-06-22T07:31:42;24.90;19.80
530;DHT22;251;48.704;9.210;2023-06-22T07:34:09;25.00;19.10
530;DHT22;251;48.704;9.210;2023-06-22T07:36:36;25.10;18.20
530;DHT22;251;48.704;9.210;2023-06-22T07:39:03;25.20;18.00
530;DHT22;251;48.704;9.210;2023-06-22T07:41:32;25.20;17.50
530;DHT22;251;48.704;9.210;2023-06-22T07:43:59;25.30;16.70
530;DHT22;251;48.704;9.210;2023-06-22T07:46:26;25.40;17.00
530;DHT22;251;48.704;9.210;2023-06-22T07:48:55;25.50;15.90
530;DHT22;251;48.704;9.210;2023-06-22T07:51:22;25.60;15.50
530;DHT22;251;48.704;9.210;2023-06-22T07:53:49;25.70;16.20
530;DHT22;251;48.704;9.210;2023-06-22T07:56:16;25.80;15.30
530;DHT22;251;48.704;9.210;2023-06-22T07:58:46;25.90;15.70
530;DHT22;251;48.704;9.210;2023-06-22T08:01:13;26.00;15.30
530;DHT22;251;48.704;9.210;2023-06-22T08:03:40;26.10;14.80
530;DHT22;251;48.704;9.210;2023-06-22T08:06:07;26.20;15.00
530;DHT22;251;48.704;9.210;2023-06-22T08:08:35;26.20;15.00
530;DHT22;251;48.704;9.210;2023-06-22T08:11:02;26.30;15.50
530;DHT22;251;48.704;9.210;2023-06-22T08:13:29;26.40;14.10
530;DHT22;251;48.704;9.210;2023-06-22T08:15:57;26.60;14.20
530;DHT22;251;48.704;9.210;2023-06-22T08:18:23;26.90;12.40
530;DHT22;251;48.704;9.210;2023-06-22T08:20:50;27.10;13.00
530;DHT22;251;48.704;9.210;2023-06-22T08:23:17;27.20;12.30
530;DHT22;251;48.704;9.210;2023-06-22T08:25:44;27.40;11.90
530;DHT22;251;48.704;9.210;2023-06-22T08:28:10;27.60;11.20
530;DHT22;251;48.704;9.210;2023-06-22T08:30:38;27.70;10.60
530;DHT22;251;48.704;9.210;2023-06-22T08:33:06;27.70;9.60
530;DHT22;251;48.704;9.210;2023-06-22T08:35:33;27.70;10.80
530;DHT22;251;48.704;9.210;2023-06-22T08:38:00;27.70;11.10
530;DHT22;251;48.704;9.210;2023-06-22T08:40:27;27.80;9.40
530;DHT22;251;48.704;9.210;2023-06-22T08:42:54;27.90;9.90
530;DHT22;251;48.704;9.210;2023-06-22T08:45:21;27.90;9.20
530;DHT22;251;48.704;9.210;2023-06-22T08:47:48;27.90;9.00
530;DHT22;251;48.704;9.210;2023-06-22T08:50:16;28.10;9.50
530;DHT22;251;48.704;9.210;2023-06-22T08:52:43;28.20;9.70
530;DHT22;251;48.704;9.210;2023-06-22T08:55:11;28.40;9.30
530;DHT22;251;48.704;9.210;2023-06-22T08:57:38;28.50;9.40
530;DHT22;251;48.704;9.210;2023-06-22T09:00:07;28.50;9.30
530;DHT22;251;48.704;9.210;2023-06-22T09:02:40;28.60;8.50
530;DHT22;251;48.704;9.210;2023-06-22T09:05:08;28.70;9.50
530;DHT22;251;48.704;9.210;2023-06-22T09:07:36;28.90;9.30
530;DHT22;251;48.704;9.210;2023-06-22T09:10:03;29.00;8.40
530;DHT22;251;48.704;9.210;2023-06-22T09:12:31;29.20;8.20
530;DHT22;251;48.704;9.210;2023-06-22T09:14:58;29.40;9.30
530;DHT22;251;48.704;9.210;2023-06-22T09:17:26;29.50;8.10
530;DHT22;251;48.704;9.210;2023-06-22T09:19:53;29.50;7.50
530;DHT22;251;48.704;9.210;2023-06-22T09:22:19;29.30;7.30
530;DHT22;251;48.704;9.210;2023-06-22T09:24:47;29.10;7.90
530;DHT22;251;48.704;9.210;2023-06-22T09:27:14;29.00;8.30
530;DHT22;251;48.704;9.210;2023-06-22T09:29:41;29.00;8.30
530;DHT22;251;48.704;9.210;2023-06-22T09:32:08;29.00;9.60
530;DHT22;251;48.704;9.210;2023-06-22T09:34:35;29.00;8.70
530;DHT22;251;48.704;9.210;2023-06-22T09:37:02;29.00;8.30
530;DHT22;251;48.704;9.210;2023-06-22T09:39:29;29.00;9.60
530;DHT22;251;48.704;9.210;2023-06-22T09:41:58;29.00;9.60
530;DHT22;251;48.704;9.210;2023-06-22T09:44:25;29.10;9.60
530;DHT22;251;48.704;9.210;2023-06-22T09:46:52;29.10;8.40
530;DHT22;251;48.704;9.210;2023-06-22T09:49:19;29.20;8.60
530;DHT22;251;48.704;9.210;2023-06-22T09:51:45;29.30;8.20
530;DHT22;251;48.704;9.210;2023-06-22T09:54:12;29.40;9.80
530;DHT22;251;48.704;9.210;2023-06-22T09:56:39;29.70;9.40
530;DHT22;251;48.704;9.210;2023-06-22T09:59:07;29.80;6.70
530;DHT22;251;48.704;9.210;2023-06-22T10:01:34;29.90;6.60
530;DHT22;251;48.704;9.210;2023-06-22T10:04:02;30.30;6.20
530;DHT22;251;48.704;9.210;2023-06-22T10:06:29;30.50;6.60
530;DHT22;251;48.704;9.210;2023-06-22T10:08:55;30.50;4.80
530;DHT22;251;48.704;9.210;2023-06-22T10:11:22;30.60;5.30
530;DHT22;251;48.704;9.210;2023-06-22T10:13:54;31.00;6.40
530;DHT22;251;48.704;9.210;2023-06-22T10:16:24;31.20;5.90
530;DHT22;251;48.704;9.210;2023-06-22T10:18:52;31.40;5.10
530;DHT22;251;48.704;9.210;2023-06-22T10:21:19;31.70;4.90
530;DHT22;251;48.704;9.210;2023-06-22T10:23:45;31.90;5.00
530;DHT22;251;48.704;9.210;2023-06-22T10:26:13;32.10;4.50
530;DHT22;251;48.704;9.210;2023-06-22T10:28:39;32.30;2.90
530;DHT22;251;48.704;9.210;2023-06-22T10:31:06;32.30;3.40
530;DHT22;251;48.704;9.210;2023-06-22T10:33:34;32.40;3.70
530;DHT22;251;48.704;9.210;2023-06-22T10:36:01;32.40;2.30
530;DHT22;251;48.704;9.210;2023-06-22T10:38:28;32.50;2.90
530;DHT22;251;48.704;9.210;2023-06-22T10:40:54;32.60;2.20
530;DHT22;251;48.704;9.210;2023-06-22T10:43:21;32.60;1.80
530;DHT22;251;48.704;9.210;2023-06-22T10:45:48;32.60;2.50
530;DHT22;251;48.704;9.210;2023-06-22T10:48:15;32.70;2.40
530;DHT22;251;48.704;9.210;2023-06-22T10:50:43;32.60;2.00
530;DHT22;251;48.704;9.210;2023-06-22T10:53:09;32.50;2.70
530;DHT22;251;48.704;9.210;2023-06-22T10:55:36;32.50;2.30
530;DHT22;251;48.704;9.210;2023-06-22T10:58:03;32.40;4.50
530;DHT22;251;48.704;9.210;2023-06-22T11:00:30;32.50;3.50
530;DHT22;251;48.704;9.210;2023-06-22T11:02:56;32.60;2.50
530;DHT22;251;48.704;9.210;2023-06-22T11:05:23;32.60;2.10
530;DHT22;251;48.704;9.210;2023-06-22T11:07:52;32.80;2.70
530;DHT22;251;48.704;9.210;2023-06-22T11:10:18;32.80;2.40
530;DHT22;251;48.704;9.210;2023-06-22T11:12:45;33.00;2.70
530;DHT22;251;48.704;9.210;2023-06-22T11:15:12;33.10;2.40
530;DHT22;251;48.704;9.210;2023-06-22T11:17:38;33.10;2.20
530;DHT22;251;48.704;9.210;2023-06-22T11:20:06;33.20;1.60
530;DHT22;251;48.704;9.210;2023-06-22T11:22:36;33.30;3.30
530;DHT22;251;48.704;9.210;2023-06-22T11:25:05;33.30;1.00
530;DHT22;251;48.704;9.210;2023-06-22T11:27:32;33.40;2.20
530;DHT22;251;48.704;9.210;2023-06-22T11:29:59;33.40;2.10
530;DHT22;251;48.704;9.210;2023-06-22T11:32:26;33.50;1.80
530;DHT22;251;48.704;9.210;2023-06-22T11:34:53;33.60;1.30
530;DHT22;251;48.704;9.210;2023-06-22T11:37:20;33.60;2.10
530;DHT22;251;48.704;9.210;2023-06-22T11:39:47;33.90;2.70
530;DHT22;251;48.704;9.210;2023-06-22T11:42:15;34.40;2.60
530;DHT22;251;48.704;9.210;2023-06-22T11:44:42;34.90;1.00
530;DHT22;251;48.704;9.210;2023-06-22T11:47:09;35.20;1.00
530;DHT22;251;48.704;9.210;2023-06-22T11:49:36;35.30;1.00
530;DHT22;251;48.704;9.210;2023-06-22T11:52:03;35.30;1.00
530;DHT22;251;48.704;9.210;2023-06-22T11:54:30;35.00;1.00
530;DHT22;251;48.704;9.210;2023-06-22T11:56:57;34.80;1.00
530;DHT22;251;48.704;9.210;2023-06-22T11:59:25;34.80;1.50
530;DHT22;251;48.704;9.210;2023-06-22T12:01:52;34.80;1.00
530;DHT22;251;48.704;9.210;2023-06-22T12:04:19;34.50;1.00
530;DHT22;251;48.704;9.210;2023-06-22T12:06:47;34.40;1.00
530;DHT22;251;48.704;9.210;2023-06-22T12:09:14;34.30;1.00
530;DHT22;251;48.704;9.210;2023-06-22T12:11:41;34.10;1.00
530;DHT22;251;48.704;9.210;2023-06-22T12:14:07;33.90;1.00
530;DHT22;251;48.704;9.210;2023-06-22T12:16:35;33.80;1.00
530;DHT22;251;48.704;9.210;2023-06-22T12:19:03;33.70;1.90
530;DHT22;251;48.704;9.210;2023-06-22T12:21:29;33.60;1.00
530;DHT22;251;48.704;9.210;2023-06-22T12:23:56;33.50;1.00
530;DHT22;251;48.704;9.210;2023-06-22T12:26:23;33.60;1.00
530;DHT22;251;48.704;9.210;2023-06-22T12:28:50;33.50;1.00
530;DHT22;251;48.704;9.210;2023-06-22T12:31:17;33.40;1.70
530;DHT22;251;48.704;9.210;2023-06-22T12:33:45;33.20;2.80
530;DHT22;251;48.704;9.210;2023-06-22T12:36:12;33.00;3.90
530;DHT22;251;48.704;9.210;2023-06-22T12:38:39;32.80;1.60
530;DHT22;251;48.704;9.210;2023-06-22T12:41:06;32.60;2.40
530;DHT22;251;48.704;9.210;2023-06-22T12:43:33;32.40;1.00
530;DHT22;251;48.704;9.210;2023-06-22T12:45:59;32.20;1.20
530;DHT22;251;48.704;9.210;2023-06-22T12:48:27;32.00;2.90
530;DHT22;251;48.704;9.210;2023-06-22T12:50:55;31.90;5.20
530;DHT22;251;48.704;9.210;2023-06-22T12:53:22;31.80;3.30
530;DHT22;251;48.704;9.210;2023-06-22T12:55:49;31.70;4.10
530;DHT22;251;48.704;9.210;2023-06-22T12:58:15;31.80;4.20
530;DHT22;251;48.704;9.210;2023-06-22T13:00:42;31.70;4.50
530;DHT22;251;48.704;9.210;2023-06-22T13:03:10;31.70;6.00
530;DHT22;251;48.704;9.210;2023-06-22T13:05:37;31.70;3.90
530;DHT22;251;48.704;9.210;2023-06-22T13:08:05;31.80;5.40
530;DHT22;251;48.704;9.210;2023-06-22T13:10:32;31.80;6.30
530;DHT22;251;48.704;9.210;2023-06-22T13:12:58;31.90;6.60
530;DHT22;251;48.704;9.210;2023-06-22T13:15:27;31.90;5.60
530;DHT22;251;48.704;9.210;2023-06-22T13:17:54;32.00;6.80
530;DHT22;251;48.704;9.210;2023-06-22T13:20:20;32.10;5.60
530;DHT22;251;48.704;9.210;2023-06-22T13:22:47;32.20;5.00
530;DHT22;251;48.704;9.210;2023-06-22T13:25:15;32.60;4.40
530;DHT22;251;48.704;9.210;2023-06-22T13:27:44;32.80;3.20
530;DHT22;251;48.704;9.210;2023-06-22T13:30:11;32.80;3.10
530;DHT22;251;48.704;9.210;2023-06-22T13:32:38;32.70;3.50
530;DHT22;251;48.704;9.210;2023-06-22T13:35:08;32.70;4.00
530;DHT22;251;48.704;9.210;2023-06-22T13:37:35;32.60;2.00
530;DHT22;251;48.704;9.210;2023-06-22T13:40:02;32.70;2.50
530;DHT22;251;48.704;9.210;2023-06-22T13:42:32;32.80;2.20
530;DHT22;251;48.704;9.210;2023-06-22T13:44:59;32.80;3.30
530;DHT22;251;48.704;9.210;2023-06-22T13:47:26;32.90;2.30
530;DHT22;251;48.704;9.210;2023-06-22T13:49:52;32.90;2.10
530;DHT22;251;48.704;9.210;2023-06-22T13:52:19;33.00;2.40
530;DHT22;251;48.704;9.210;2023-06-22T13:54:46;33.20;2.20
530;DHT22;251;48.704;9.210;2023-06-22T13:57:13;33.50;2.20
530;DHT22;251;48.704;9.210;2023-06-22T13:59:41;33.50;2.40
530;DHT22;251;48.704;9.210;2023-06-22T14:02:08;33.60;1.30
530;DHT22;251;48.704;9.210;2023-06-22T14:04:34;34.00;1.20
530;DHT22;251;48.704;9.210;2023-06-22T14:07:01;34.50;1.00
530;DHT22;251;48.704;9.210;2023-06-22T14:09:28;34.90;1.00
530;DHT22;251;48.704;9.210;2023-06-22T14:11:55;35.10;1.00
530;DHT22;251;48.704;9.210;2023-06-22T14:14:22;35.30;1.00
530;DHT22;251;48.704;9.210;2023-06-22T14:16:50;35.40;1.00
530;DHT22;251;48.704;9.210;2023-06-22T14:19:17;35.40;1.00
530;DHT22;251;48.704;9.210;2023-06-22T14:21:44;35.40;1.00
530;DHT22;251;48.704;9.210;2023-06-22T14:24:11;35.20;1.00
530;DHT22;251;48.704;9.210;2023-06-22T14:26:38;34.90;1.00
530;DHT22;251;48.704;9.210;2023-06-22T14:29:04;34.80;1.00
530;DHT22;251;48.704;9.210;2023-06-22T14:31:31;34.70;1.00
530;DHT22;251;48.704;9.210;2023-06-22T14:34:00;34.60;1.00
530;DHT22;251;48.704;9.210;2023-06-22T14:36:28;35.10;1.00
530;DHT22;251;48.704;9.210;2023-06-22T14:38:54;35.80;1.00
530;DHT22;251;48.704;9.210;2023-06-22T14:41:21;36.50;1.00
530;DHT22;251;48.704;9.210;2023-06-22T14:43:50;37.10;1.00
530;DHT22;251;48.704;9.210;2023-06-22T14:46:18;37.60;1.00
530;DHT22;251;48.704;9.210;2023-06-22T14:48:45;37.80;1.00
530;DHT22;251;48.704;9.210;2023-06-22T14:51:14;37.90;1.00
530;DHT22;251;48.704;9.210;2023-06-22T14:53:41;37.60;1.00
530;DHT22;251;48.704;9.210;2023-06-22T14:56:08;37.70;1.00
530;DHT22;251;48.704;9.210;2023-06-22T14:58:35;37.60;1.00
530;DHT22;251;48.704;9.210;2023-06-22T15:01:02;37.10;1.00
530;DHT22;251;48.704;9.210;2023-06-22T15:03:30;36.80;1.00
530;DHT22;251;48.704;9.210;2023-06-22T15:06:05;36.00;1.00
530;DHT22;251;48.704;9.210;2023-06-22T15:08:38;35.60;1.00
530;DHT22;251;48.704;9.210;2023-06-22T15:11:05;35.20;1.00
530;DHT22;251;48.704;9.210;2023-06-22T15:13:32;35.10;1.00
530;DHT22;251;48.704;9.210;2023-06-22T15:16:00;35.40;1.00
530;DHT22;251;48.704;9.210;2023-06-22T15:18:28;35.50;1.00
530;DHT22;251;48.704;9.210;2023-06-22T15:20:55;35.40;1.00
530;DHT22;251;48.704;9.210;2023-06-22T15:23:24;35.40;1.00
530;DHT22;251;48.704;9.210;2023-06-22T15:25:52;35.30;1.00
530;DHT22;251;48.704;9.210;2023-06-22T15:28:19;34.90;1.00
530;DHT22;251;48.704;9.210;2023-06-22T15:30:46;34.80;1.00
530;DHT22;251;48.704;9.210;2023-06-22T15:33:13;34.80;1.00
530;DHT22;251;48.704;9.210;2023-06-22T15:35:40;34.50;1.00
530;DHT22;251;48.704;9.210;2023-06-22T15:38:07;34.20;1.00
530;DHT22;251;48.704;9.210;2023-06-22T15:40:34;33.90;1.00
530;DHT22;251;48.704;9.210;2023-06-22T15:43:02;33.60;1.00
530;DHT22;251;48.704;9.210;2023-06-22T15:45:29;33.40;1.00
530;DHT22;251;48.704;9.210;2023-06-22T15:47:55;33.20;1.00
530;DHT22;251;48.704;9.210;2023-06-22T15:50:22;33.30;1.00
530;DHT22;251;48.704;9.210;2023-06-22T15:52:49;33.80;1.00
530;DHT22;251;48.704;9.210;2023-06-22T15:55:18;34.00;1.00
530;DHT22;251;48.704;9.210;2023-06-22T15:57:45;33.50;1.00
530;DHT22;251;48.704;9.210;2023-06-22T16:00:15;33.30;1.00
530;DHT22;251;48.704;9.210;2023-06-22T16:02:44;33.00;1.00
530;DHT22;251;48.704;9.210;2023-06-22T16:05:11;32.70;1.00
530;DHT22;251;48.704;9.210;2023-06-22T16:07:38;32.30;1.00
530;DHT22;251;48.704;9.210;2023-06-22T16:10:06;32.10;1.00
530;DHT22;251;48.704;9.210;2023-06-22T16:12:34;31.80;1.00
530;DHT22;251;48.704;9.210;2023-06-22T16:15:01;31.70;1.00
530;DHT22;251;48.704;9.210;2023-06-22T16:17:29;31.50;1.00
530;DHT22;251;48.704;9.210;2023-06-22T16:19:56;31.30;1.00
530;DHT22;251;48.704;9.210;2023-06-22T16:22:25;31.20;1.00
530;DHT22;251;48.704;9.210;2023-06-22T16:24:51;31.00;1.00
530;DHT22;251;48.704;9.210;2023-06-22T16:27:19;30.90;1.00
530;DHT22;251;48.704;9.210;2023-06-22T16:29:45;30.90;1.00
530;DHT22;251;48.704;9.210;2023-06-22T16:32:12;30.70;1.00
530;DHT22;251;48.704;9.210;2023-06-22T16:34:41;30.60;1.00
530;DHT22;251;48.704;9.210;2023-06-22T16:37:08;30.50;1.00
530;DHT22;251;48.704;9.210;2023-06-22T16:39:35;30.40;1.00
530;DHT22;251;48.704;9.210;2023-06-22T16:42:02;30.30;1.00
530;DHT22;251;48.704;9.210;2023-06-22T16:44:29;30.10;1.00